createdAt,value
2019-04-01T00:01:30.278Z,3.10
2019-04-01T00:10:08.578Z,3.10
2019-04-01T00:15:42.972Z,3.10
2019-04-01T00:24:14.418Z,3.00
2019-04-01T00:32:49.445Z,2.90
2019-04-01T00:38:20.769Z,2.80
2019-04-01T00:40:59.835Z,2.80
2019-04-01T00:49:04.543Z,2.70
2019-04-01T00:51:35.293Z,2.60
2019-04-01T00:54:08.760Z,2.60
2019-04-01T00:56:39.365Z,2.60
2019-04-01T00:59:09.438Z,2.60
2019-04-01T01:01:40.893Z,2.50
2019-04-01T01:04:10.958Z,2.50
2019-04-01T01:06:42.882Z,2.50
2019-04-01T01:09:14.451Z,2.50
2019-04-01T01:11:54.234Z,2.50
2019-04-01T01:14:26.089Z,2.50
2019-04-01T01:16:55.011Z,2.50
2019-04-01T01:19:24.635Z,2.40
2019-04-01T01:21:55.533Z,2.40
2019-04-01T01:24:32.470Z,2.40
2019-04-01T01:27:02.723Z,2.40
2019-04-01T01:29:34.773Z,2.30
2019-04-01T01:49:12.513Z,2.20
2019-04-01T01:52:16.583Z,2.20
2019-04-01T02:20:57.913Z,1.90
2019-04-01T02:42:30.819Z,1.50
2019-04-01T07:27:18.019Z,14.40
2019-04-01T07:29:48.847Z,15.10
2019-04-01T07:32:17.579Z,15.70
2019-04-01T07:34:46.210Z,15.70
2019-04-01T07:37:14.957Z,15.60
2019-04-01T07:39:43.903Z,15.80
2019-04-01T07:42:12.583Z,16.50
2019-04-01T07:44:41.178Z,17.10
2019-04-01T07:47:09.912Z,16.30
2019-04-01T07:49:38.690Z,16.10
2019-04-01T07:52:07.391Z,16.70
2019-04-01T07:54:36.400Z,16.00
2019-04-01T07:57:05.315Z,16.40
2019-04-01T08:06:33.216Z,15.20
2019-04-01T08:09:02.830Z,16.10
2019-04-01T08:11:31.924Z,16.00
2019-04-01T08:14:01.033Z,16.50
2019-04-01T08:16:29.847Z,16.60
2019-04-01T08:18:58.557Z,16.80
2019-04-01T08:21:27.276Z,16.60
2019-04-01T08:23:55.971Z,15.80
2019-04-01T08:36:20.079Z,15.20
2019-04-01T08:42:40.673Z,15.40
2019-04-01T08:54:24.022Z,15.40
2019-04-01T08:56:52.593Z,15.50
2019-04-01T08:59:21.577Z,15.60
2019-04-01T09:02:17.100Z,15.90
2019-04-01T09:04:35.844Z,16.10
2019-04-01T09:07:04.940Z,16.10
2019-04-01T09:09:34.043Z,15.60
2019-04-01T09:12:02.740Z,15.90
2019-04-01T09:14:31.455Z,15.90
2019-04-01T09:17:01.356Z,16.00
2019-04-01T09:19:30.312Z,16.20
2019-04-01T09:21:58.892Z,16.00
2019-04-01T09:24:27.435Z,16.40
2019-04-01T09:26:58.003Z,16.50
2019-04-01T09:29:27.099Z,16.40
2019-04-01T09:32:42.485Z,15.60
2019-04-01T09:35:13.899Z,15.40
2019-04-01T09:37:42.611Z,15.60
2019-04-01T09:40:11.715Z,15.80
2019-04-01T09:49:37.777Z,14.90
2019-04-01T09:55:06.121Z,14.90
2019-04-01T10:04:49.341Z,15.10
2019-04-01T10:07:17.888Z,15.50
2019-04-01T10:09:46.709Z,15.40
2019-04-01T10:12:16.502Z,15.50
2019-04-01T10:14:45.358Z,15.60
2019-04-01T10:17:13.990Z,15.90
2019-04-01T10:19:42.704Z,16.00
2019-04-01T10:22:11.371Z,16.00
2019-04-01T10:24:46.248Z,15.90
2019-04-01T10:27:15.112Z,15.50
2019-04-01T10:29:43.887Z,15.30
2019-04-01T10:32:12.548Z,15.30
2019-04-01T10:34:53.337Z,15.40
2019-04-01T10:37:21.981Z,15.10
2019-04-01T10:39:59.941Z,15.00
2019-04-01T10:42:26.499Z,15.20
2019-04-01T10:53:46.199Z,14.40
2019-04-01T10:56:16.731Z,14.40
2019-04-01T10:58:59.450Z,14.50
2019-04-01T11:01:28.063Z,14.50
2019-04-01T11:07:41.902Z,14.60
2019-04-01T11:13:10.471Z,14.10
2019-04-01T11:15:43.594Z,13.90
2019-04-01T11:18:15.318Z,14.00
2019-04-01T11:20:49.574Z,14.10
2019-04-01T11:26:39.130Z,14.00
2019-04-01T11:29:07.844Z,14.00
2019-04-01T11:31:36.492Z,14.10
2019-04-01T11:34:05.117Z,14.30
2019-04-01T11:36:33.709Z,14.40
2019-04-01T11:39:02.686Z,14.60
2019-04-01T11:41:31.426Z,14.80
2019-04-01T11:44:00.186Z,14.60
2019-04-01T11:46:28.782Z,14.70
2019-04-01T11:48:57.450Z,14.50
2019-04-01T11:51:39.953Z,14.60
2019-04-01T11:58:35.814Z,14.30
2019-04-01T12:04:25.026Z,14.30
2019-04-01T12:06:53.632Z,14.20
2019-04-01T12:09:22.329Z,14.30
2019-04-01T12:11:50.995Z,14.40
2019-04-01T12:14:19.873Z,14.60
2019-04-01T12:17:08.729Z,14.80
2019-04-01T12:19:43.951Z,14.80
2019-04-01T12:22:12.719Z,14.60
2019-04-01T12:24:41.648Z,14.60
2019-04-01T12:27:16.313Z,14.70
2019-04-01T12:29:48.136Z,14.70
2019-04-01T12:35:29.624Z,14.50
2019-04-01T12:37:58.252Z,14.60
2019-04-01T12:40:26.803Z,14.60
2019-04-01T12:42:55.474Z,14.70
2019-04-01T12:45:28.832Z,14.90
2019-04-01T12:47:57.400Z,14.80
2019-04-01T12:50:26.175Z,14.60
2019-04-01T12:52:54.727Z,14.70
2019-04-01T12:55:23.535Z,14.70
2019-04-01T12:57:52.067Z,14.80
2019-04-01T13:00:22.943Z,14.80
2019-04-01T13:02:51.676Z,14.70
2019-04-01T13:05:20.257Z,14.60
2019-04-01T13:07:49.164Z,14.70
2019-04-01T13:10:20.170Z,14.90
2019-04-01T13:12:48.951Z,15.00
2019-04-01T13:15:18.357Z,15.10
2019-04-01T13:17:46.895Z,15.00
2019-04-01T13:20:15.794Z,14.90
2019-04-01T13:22:44.478Z,14.90
2019-04-01T13:25:13.057Z,14.70
2019-04-01T13:27:41.687Z,14.60
2019-04-01T13:30:10.844Z,14.80
2019-04-01T13:32:39.835Z,14.80
2019-04-01T13:35:08.573Z,14.90
2019-04-01T13:37:37.138Z,14.60
2019-04-01T13:40:06.520Z,14.70
2019-04-01T13:42:35.129Z,14.70
2019-04-01T13:45:05.227Z,14.80
2019-04-01T13:47:34.079Z,14.80
2019-04-01T13:50:03.758Z,14.70
2019-04-01T13:52:34.889Z,14.70
2019-04-01T13:55:04.786Z,14.70
2019-04-01T13:57:33.347Z,14.80
2019-04-01T14:00:02.037Z,14.70
2019-04-01T14:02:44.607Z,14.70
2019-04-01T14:05:14.274Z,14.70
2019-04-01T14:07:44.482Z,14.70
2019-04-01T14:10:13.284Z,14.70
2019-04-01T14:12:42.111Z,14.80
2019-04-01T14:15:30.584Z,14.80
2019-04-01T14:17:59.172Z,14.70
2019-04-01T14:20:29.013Z,14.50
2019-04-01T14:22:57.684Z,14.60
2019-04-01T14:25:26.487Z,14.70
2019-04-01T14:27:55.462Z,14.70
2019-04-01T14:30:24.068Z,14.60
2019-04-01T14:36:08.103Z,14.60
2019-04-01T14:38:38.540Z,14.60
2019-04-01T14:41:07.093Z,14.50
2019-04-01T14:43:35.707Z,14.40
2019-04-01T14:46:05.814Z,14.50
2019-04-01T14:48:34.790Z,14.50
2019-04-01T14:51:03.848Z,14.60
2019-04-01T14:53:32.787Z,14.60
2019-04-01T14:56:01.416Z,14.60
2019-04-01T14:58:30.148Z,14.60
2019-04-01T15:00:58.832Z,14.80
2019-04-01T15:03:27.562Z,14.90
2019-04-01T15:05:56.214Z,15.00
2019-04-01T15:08:24.779Z,15.10
2019-04-01T15:10:53.495Z,14.90
2019-04-01T15:13:22.118Z,14.80
2019-04-01T15:15:50.719Z,14.70
2019-04-01T15:18:19.381Z,14.70
2019-04-01T15:20:47.988Z,14.70
2019-04-01T15:23:27.353Z,14.60
2019-04-01T15:26:15.109Z,14.50
2019-04-01T15:28:44.353Z,14.20
2019-04-01T15:31:12.906Z,14.20
2019-04-01T15:33:41.531Z,14.20
2019-04-01T15:39:09.205Z,14.30
2019-04-01T15:41:38.088Z,14.20
2019-04-01T15:44:06.742Z,14.10
2019-04-01T16:23:38.488Z,12.90
2019-04-01T16:35:21.173Z,12.70
2019-04-01T17:13:27.090Z,11.80
2019-04-01T17:16:01.649Z,11.80
2019-04-01T17:18:31.380Z,11.60
2019-04-01T17:21:00.560Z,11.50
2019-04-01T17:23:53.834Z,11.40
